createdAt,value
2019-03-28T00:02:03.191Z,26.97
2019-03-28T00:07:52.233Z,23.83
2019-03-28T00:10:33.359Z,21.97
2019-03-28T00:13:14.767Z,26.63
2019-03-28T00:15:55.778Z,21.55
2019-03-28T00:18:36.757Z,21.37
2019-03-28T00:21:18.077Z,25.83
2019-03-28T00:26:54.318Z,23.40
2019-03-28T00:29:34.840Z,25.23
2019-03-28T00:32:16.195Z,23.73
2019-03-28T00:34:56.136Z,24.53
2019-03-28T00:37:44.688Z,23.20
2019-03-28T00:46:35.451Z,24.40
2019-03-28T00:55:25.899Z,26.80
2019-03-28T00:58:14.463Z,29.20
2019-03-28T01:04:10.686Z,26.77
2019-03-28T01:10:05.796Z,25.57
2019-03-28T01:12:54.395Z,26.17
2019-03-28T01:15:43.001Z,24.30
2019-03-28T01:18:33.252Z,21.33
2019-03-28T01:21:21.796Z,24.95
2019-03-28T01:24:03.380Z,22.67
2019-03-28T01:26:51.893Z,20.20
2019-03-28T01:29:26.620Z,23.87
2019-03-28T01:32:07.238Z,20.50
2019-03-28T01:34:48.744Z,28.13
2019-03-28T01:37:29.942Z,22.60
2019-03-28T01:40:10.792Z,28.40
2019-03-28T01:42:51.400Z,21.93
2019-03-28T01:45:33.256Z,21.20
2019-03-28T01:48:14.760Z,22.95
2019-03-28T01:50:55.632Z,17.80
2019-03-28T01:53:36.377Z,24.17
2019-03-28T01:56:17.002Z,21.87
2019-03-28T01:58:57.953Z,20.10
2019-03-28T02:01:39.446Z,17.33
2019-03-28T02:04:19.143Z,24.27
2019-03-28T02:15:49.529Z,17.60
2019-03-28T02:18:38.157Z,24.30
2019-03-28T02:21:27.315Z,22.80
2019-03-28T02:24:10.225Z,24.23
2019-03-28T02:26:51.281Z,18.57
2019-03-28T02:29:33.166Z,25.00
2019-03-28T02:32:14.671Z,22.02
2019-03-28T02:34:56.074Z,25.77
2019-03-28T02:37:36.780Z,23.40
2019-03-28T02:40:17.492Z,22.60
2019-03-28T02:46:06.581Z,20.57
2019-03-28T02:48:47.759Z,22.20
2019-03-28T02:51:29.061Z,22.90
2019-03-28T02:54:10.678Z,18.93
2019-03-28T02:56:51.434Z,18.27
2019-03-28T02:59:32.712Z,22.70
2019-03-28T03:02:13.635Z,27.57
2019-03-28T03:04:54.863Z,23.60
2019-03-28T03:07:35.766Z,20.20
2019-03-28T03:10:17.580Z,20.23
2019-03-28T03:12:58.341Z,22.43
2019-03-28T03:18:57.924Z,26.10
2019-03-28T03:21:39.042Z,23.50
2019-03-28T03:24:20.132Z,19.23
2019-03-28T03:27:01.600Z,18.97
2019-03-28T03:29:42.486Z,25.17
2019-03-28T03:32:23.344Z,22.73
2019-03-28T03:35:04.251Z,22.27
2019-03-28T03:41:04.719Z,22.10
2019-03-28T03:43:44.294Z,18.27
2019-03-28T03:46:32.843Z,24.70
2019-03-28T03:49:21.443Z,23.70
2019-03-28T03:52:10.079Z,25.00
2019-03-28T04:01:00.114Z,21.10
2019-03-28T04:03:48.641Z,20.93
2019-03-28T04:06:29.648Z,32.38
2019-03-28T04:09:11.107Z,22.00
2019-03-28T04:11:51.808Z,21.50
2019-03-28T04:14:32.486Z,20.17
2019-03-28T04:17:13.554Z,22.60
2019-03-28T04:19:54.966Z,18.53
2019-03-28T04:22:36.920Z,19.90
2019-03-28T04:25:18.501Z,22.93
2019-03-28T04:30:42.041Z,20.27
2019-03-28T04:33:22.888Z,21.77
2019-03-28T04:36:03.834Z,24.90
2019-03-28T04:38:44.711Z,85.60
2019-03-28T04:41:25.781Z,60.10
2019-03-28T04:44:07.067Z,36.83
2019-03-28T04:46:47.761Z,35.97
2019-03-28T04:49:28.830Z,42.17
2019-03-28T04:52:10.068Z,29.47
2019-03-28T04:54:51.242Z,28.83
2019-03-28T05:00:51.359Z,29.37
2019-03-28T05:03:32.140Z,30.20
2019-03-28T05:06:13.534Z,28.20
2019-03-28T05:08:54.175Z,27.97
2019-03-28T05:11:34.746Z,26.47
2019-03-28T05:14:15.898Z,22.27
2019-03-28T05:16:57.177Z,24.90
2019-03-28T05:19:36.857Z,22.70
2019-03-28T05:22:17.952Z,28.97
2019-03-28T05:24:58.726Z,18.43
2019-03-28T05:27:40.091Z,22.00
2019-03-28T05:30:20.768Z,19.90
2019-03-28T05:33:01.580Z,21.93
2019-03-28T05:35:42.529Z,24.20
2019-03-28T05:38:23.460Z,18.77
2019-03-28T05:41:04.841Z,23.60
2019-03-28T05:43:45.952Z,28.50
2019-03-28T05:46:27.086Z,21.70
2019-03-28T05:49:08.077Z,20.53
2019-03-28T05:51:48.640Z,23.18
2019-03-28T05:57:37.848Z,23.97
2019-03-28T06:00:18.922Z,22.13
2019-03-28T06:03:00.396Z,22.67
2019-03-28T06:05:41.365Z,18.15
2019-03-28T06:08:22.040Z,19.90
2019-03-28T06:11:03.268Z,22.23
2019-03-28T06:16:27.113Z,24.00
2019-03-28T06:19:08.323Z,23.37
2019-03-28T06:21:49.057Z,22.25
2019-03-28T06:24:29.874Z,28.97
2019-03-28T06:27:10.722Z,22.70
2019-03-28T06:29:52.487Z,24.40
2019-03-28T06:32:42.706Z,20.33
2019-03-28T06:35:16.275Z,19.10
2019-03-28T06:37:58.451Z,18.60
2019-03-28T06:40:39.374Z,26.53
2019-03-28T06:43:20.159Z,20.10
2019-03-28T06:46:01.208Z,20.57
2019-03-28T06:48:42.535Z,21.90
2019-03-28T06:51:23.656Z,20.70
2019-03-28T06:54:04.508Z,19.70
2019-03-28T06:56:46.056Z,23.50
2019-03-28T06:59:37.209Z,25.47
2019-03-28T07:02:10.304Z,21.07
2019-03-28T07:04:51.532Z,22.20
2019-03-28T07:10:51.150Z,20.33
2019-03-28T07:13:32.442Z,22.40
2019-03-28T07:16:13.932Z,21.57
2019-03-28T07:18:55.006Z,18.60
2019-03-28T07:21:36.098Z,21.07
2019-03-28T07:24:16.710Z,22.40
2019-03-28T07:26:57.778Z,21.60
2019-03-28T07:29:50.290Z,19.17
2019-03-28T07:32:21.346Z,18.53
2019-03-28T07:35:02.803Z,19.17
2019-03-28T07:37:43.365Z,19.20
2019-03-28T07:43:43.240Z,20.70
2019-03-28T07:46:24.364Z,20.40
2019-03-28T07:49:05.383Z,18.20
2019-03-28T07:51:45.992Z,17.07
2019-03-28T07:54:27.294Z,14.97
2019-03-28T07:57:08.315Z,16.23
2019-03-28T07:59:49.363Z,17.30
2019-03-28T08:02:30.520Z,17.47
2019-03-28T08:05:11.260Z,14.30
2019-03-28T08:07:52.674Z,12.82
2019-03-28T08:10:33.762Z,16.23
2019-03-28T08:13:15.075Z,12.50
2019-03-28T08:15:55.879Z,15.97
2019-03-28T08:18:36.923Z,15.43
2019-03-28T08:21:17.878Z,23.80
2019-03-28T08:26:40.798Z,16.33
2019-03-28T08:29:21.616Z,16.90
2019-03-28T08:32:04.162Z,25.80
2019-03-28T08:34:44.989Z,15.70
2019-03-28T08:37:25.991Z,19.20
2019-03-28T08:40:07.471Z,23.83
2019-03-28T08:42:48.833Z,21.20
2019-03-28T08:45:30.302Z,17.50
2019-03-28T08:48:11.198Z,15.30
2019-03-28T08:50:52.515Z,18.85
2019-03-28T08:53:33.950Z,20.53
2019-03-28T08:56:14.908Z,18.83
2019-03-28T08:58:44.738Z,19.85
2019-03-28T09:07:34.916Z,19.50
2019-03-28T09:13:31.234Z,23.10
2019-03-28T09:16:19.783Z,21.63
2019-03-28T09:22:16.055Z,19.10
2019-03-28T09:31:19.331Z,17.70
2019-03-28T09:33:57.387Z,19.07
2019-03-28T09:36:45.999Z,17.80
2019-03-28T09:48:16.714Z,17.20
2019-03-28T09:50:57.480Z,14.13
2019-03-28T09:53:38.448Z,11.95
2019-03-28T09:56:19.217Z,14.47
2019-03-28T09:59:00.441Z,18.47
2019-03-28T10:01:41.110Z,14.90
2019-03-28T10:04:21.624Z,13.67
2019-03-28T10:07:02.844Z,18.70
2019-03-28T10:09:44.390Z,19.23
2019-03-28T10:12:25.635Z,15.50
2019-03-28T10:15:06.508Z,17.60
2019-03-28T10:17:47.246Z,19.80
2019-03-28T10:20:28.306Z,18.98
2019-03-28T10:23:09.455Z,16.23
2019-03-28T10:25:50.929Z,15.75
2019-03-28T10:28:32.066Z,21.17
2019-03-28T10:31:16.773Z,63.40
2019-03-28T10:33:55.781Z,16.50
2019-03-28T10:36:37.298Z,16.73
2019-03-28T10:39:18.465Z,12.67
2019-03-28T10:41:59.110Z,16.63
2019-03-28T10:44:39.927Z,8.53
2019-03-28T10:47:19.675Z,12.23
2019-03-28T10:50:08.373Z,20.50
2019-03-28T10:52:56.889Z,3.70
2019-03-28T11:01:48.003Z,15.67
2019-03-28T11:04:24.445Z,6.90
2019-03-28T11:07:13.036Z,6.00
2019-03-28T11:10:01.657Z,5.90
2019-03-28T11:12:50.301Z,7.83
2019-03-28T11:15:38.876Z,3.77
2019-03-28T11:18:27.530Z,10.23
2019-03-28T11:21:16.162Z,6.57
2019-03-28T11:24:04.796Z,6.00
2019-03-28T11:26:53.415Z,7.40
2019-03-28T11:32:27.986Z,4.37
2019-03-28T11:35:09.054Z,4.73
2019-03-28T11:37:50.205Z,9.85
2019-03-28T11:40:31.414Z,5.30
2019-03-28T11:43:12.633Z,4.73
2019-03-28T11:45:54.133Z,5.30
2019-03-28T11:48:34.955Z,3.83
2019-03-28T11:51:15.559Z,4.77
2019-03-28T11:53:56.103Z,5.57
2019-03-28T11:56:36.999Z,3.90
2019-03-28T12:02:25.240Z,5.60
2019-03-28T12:05:05.732Z,4.97
2019-03-28T12:07:46.843Z,3.60
2019-03-28T12:10:27.822Z,4.37
2019-03-28T12:13:08.878Z,4.37
2019-03-28T12:15:50.870Z,4.87
2019-03-28T12:18:32.235Z,4.63
2019-03-28T12:21:13.224Z,5.53
2019-03-28T12:23:54.406Z,5.03
2019-03-28T12:26:35.271Z,4.33
2019-03-28T12:29:16.286Z,4.93
2019-03-28T12:31:57.372Z,3.90
2019-03-28T12:34:38.292Z,5.43
2019-03-28T12:37:19.155Z,8.60
2019-03-28T12:40:00.607Z,3.83
2019-03-28T12:42:41.478Z,3.20
2019-03-28T12:45:22.349Z,3.97
2019-03-28T12:48:02.963Z,4.73
2019-03-28T12:50:43.865Z,3.23
2019-03-28T12:53:25.359Z,4.10
2019-03-28T12:56:06.287Z,4.23
2019-03-28T12:58:47.222Z,2.30
2019-03-28T13:01:27.977Z,7.10
2019-03-28T13:04:09.407Z,4.73
2019-03-28T13:06:50.071Z,3.77
2019-03-28T13:09:31.014Z,6.33
2019-03-28T13:12:12.095Z,5.83
2019-03-28T13:14:53.619Z,3.80
2019-03-28T13:17:34.968Z,3.43
2019-03-28T13:26:29.154Z,4.47
2019-03-28T13:29:10.271Z,6.57
2019-03-28T13:31:51.137Z,4.67
2019-03-28T13:34:32.341Z,4.47
2019-03-28T13:37:13.706Z,6.40
2019-03-28T13:39:54.727Z,4.05
2019-03-28T13:42:36.046Z,4.73
2019-03-28T13:45:16.984Z,4.10
2019-03-28T13:51:15.800Z,5.13
2019-03-28T13:53:56.737Z,4.37
2019-03-28T13:56:38.633Z,4.97
2019-03-28T13:59:19.961Z,8.00
2019-03-28T14:02:01.309Z,4.93
2019-03-28T14:04:42.056Z,3.97
2019-03-28T14:07:23.192Z,3.87
2019-03-28T14:10:04.175Z,3.20
2019-03-28T14:12:44.796Z,4.17
2019-03-28T14:15:26.087Z,4.40
2019-03-28T14:18:06.707Z,5.10
2019-03-28T14:20:47.279Z,3.13
2019-03-28T14:23:27.878Z,6.00
2019-03-28T14:26:08.437Z,3.97
2019-03-28T14:28:50.444Z,4.23
2019-03-28T14:31:31.279Z,5.57
2019-03-28T14:34:12.032Z,5.70
2019-03-28T14:36:51.795Z,6.17
2019-03-28T14:39:33.297Z,6.67
2019-03-28T14:42:15.189Z,4.67
2019-03-28T14:44:56.671Z,4.70
2019-03-28T14:47:38.157Z,7.57
2019-03-28T14:50:18.793Z,6.00
2019-03-28T14:52:59.745Z,5.37
2019-03-28T14:55:41.224Z,6.03
2019-03-28T14:58:22.186Z,8.10
2019-03-28T15:01:03.578Z,7.10
2019-03-28T15:03:44.253Z,8.50
2019-03-28T15:06:24.882Z,8.10
2019-03-28T15:09:07.933Z,8.40
2019-03-28T15:11:47.563Z,7.70
2019-03-28T15:17:30.316Z,11.30
2019-03-28T15:20:18.857Z,8.77
2019-03-28T15:28:55.914Z,10.37
2019-03-28T15:34:38.169Z,8.80
2019-03-28T15:37:26.736Z,9.60
2019-03-28T15:40:15.519Z,15.87
2019-03-28T15:43:04.091Z,9.93
2019-03-28T15:45:52.665Z,11.70
2019-03-28T15:51:28.719Z,19.40
2019-03-28T15:54:10.191Z,13.70
2019-03-28T15:56:51.581Z,6.90
2019-03-28T15:59:32.701Z,10.97
2019-03-28T16:04:56.180Z,15.40
2019-03-28T16:07:36.812Z,10.57
2019-03-28T16:10:17.620Z,11.67
2019-03-28T16:12:58.498Z,10.20
2019-03-28T16:15:39.881Z,14.47
2019-03-28T16:18:21.127Z,13.73
2019-03-28T16:21:01.972Z,13.50
2019-03-28T16:23:42.724Z,11.13
2019-03-28T16:26:23.272Z,13.90
2019-03-28T16:29:04.406Z,10.63
2019-03-28T16:31:44.984Z,14.83
2019-03-28T16:34:26.129Z,14.47
2019-03-28T16:37:06.601Z,12.10
2019-03-28T16:39:50.073Z,11.40
2019-03-28T16:42:30.716Z,15.17
2019-03-28T16:45:11.989Z,13.97
2019-03-28T16:47:53.490Z,11.13
2019-03-28T16:50:34.375Z,8.13
2019-03-28T16:53:15.785Z,14.13
2019-03-28T16:55:56.300Z,11.30
2019-03-28T16:58:37.847Z,12.60
2019-03-28T17:01:18.764Z,11.70
2019-03-28T17:04:00.118Z,11.43
2019-03-28T17:06:40.785Z,10.57
2019-03-28T17:09:21.513Z,19.73
2019-03-28T17:12:02.295Z,31.50
2019-03-28T17:14:43.683Z,33.87
2019-03-28T17:17:24.574Z,16.00
2019-03-28T17:20:05.988Z,37.70
2019-03-28T17:22:46.994Z,43.77
2019-03-28T17:25:28.302Z,59.20
2019-03-28T17:28:08.834Z,51.23
2019-03-28T17:30:50.010Z,49.60
2019-03-28T17:33:31.894Z,111.47
2019-03-28T17:36:13.446Z,125.03
2019-03-28T17:38:54.696Z,87.07
2019-03-28T17:41:35.515Z,113.50
2019-03-28T17:44:16.164Z,176.97
2019-03-28T17:46:57.028Z,165.87
2019-03-28T17:49:38.178Z,83.00
2019-03-28T17:52:19.163Z,95.80
2019-03-28T17:55:00.031Z,65.30
2019-03-28T17:57:41.531Z,115.10
2019-03-28T18:00:22.108Z,100.30
2019-03-28T18:03:08.935Z,64.50
2019-03-28T18:05:57.475Z,51.83
2019-03-28T18:08:28.736Z,77.03
2019-03-28T18:11:08.527Z,64.37
2019-03-28T18:17:04.785Z,39.00
2019-03-28T18:28:50.291Z,16.90
2019-03-28T18:31:49.722Z,14.03
2019-03-28T18:37:36.790Z,12.37
2019-03-28T18:46:15.014Z,10.90
2019-03-28T18:48:57.565Z,15.30
2019-03-28T18:51:39.093Z,12.67
2019-03-28T18:54:20.433Z,13.60
2019-03-28T18:57:03.303Z,12.53
2019-03-28T18:59:44.953Z,13.07
2019-03-28T19:02:25.655Z,12.13
2019-03-28T19:05:19.072Z,12.43
2019-03-28T19:07:48.896Z,14.33
2019-03-28T19:10:30.006Z,17.10
2019-03-28T19:13:18.832Z,11.17
2019-03-28T19:21:57.574Z,12.50
2019-03-28T19:24:47.208Z,13.23
2019-03-28T19:27:30.242Z,14.63
2019-03-28T19:30:10.954Z,15.40
2019-03-28T19:32:51.997Z,15.87
2019-03-28T19:35:33.506Z,11.70
2019-03-28T19:38:15.120Z,14.30
2019-03-28T19:41:15.442Z,12.80
2019-03-28T19:43:56.830Z,14.93
2019-03-28T19:46:37.762Z,14.50
2019-03-28T19:52:22.832Z,16.30
2019-03-28T19:55:03.725Z,12.10
2019-03-28T19:57:45.334Z,12.97
2019-03-28T20:00:26.755Z,18.03
2019-03-28T20:03:07.804Z,13.30
2019-03-28T20:05:50.078Z,14.10
2019-03-28T20:08:31.588Z,14.60
2019-03-28T20:11:12.330Z,14.80
2019-03-28T20:13:53.129Z,11.50
2019-03-28T20:16:34.314Z,14.03
2019-03-28T20:19:17.720Z,13.40
2019-03-28T20:21:59.496Z,14.53
2019-03-28T20:24:40.103Z,17.80
2019-03-28T20:27:22.967Z,16.47
2019-03-28T20:30:04.417Z,14.13
2019-03-28T20:32:45.536Z,14.50
2019-03-28T20:35:26.763Z,15.73
2019-03-28T20:38:07.460Z,16.73
2019-03-28T20:40:47.999Z,15.53
2019-03-28T20:46:34.152Z,12.07
2019-03-28T20:49:15.411Z,13.30
2019-03-28T20:52:15.150Z,14.70
2019-03-28T20:54:55.682Z,18.10
2019-03-28T20:57:40.222Z,15.13
2019-03-28T21:00:19.746Z,18.85
2019-03-28T21:03:03.181Z,17.20
2019-03-28T21:05:43.853Z,14.70
2019-03-28T21:08:25.030Z,12.57
2019-03-28T21:11:06.321Z,14.40
2019-03-28T21:13:47.685Z,16.53
2019-03-28T21:25:13.107Z,15.33
2019-03-28T21:28:01.637Z,16.63
2019-03-28T21:33:44.708Z,15.73
2019-03-28T21:36:33.255Z,17.15
2019-03-28T21:39:21.821Z,14.60
2019-03-28T21:42:01.461Z,10.40
2019-03-28T21:44:50.086Z,15.83
2019-03-28T21:47:38.730Z,13.60
2019-03-28T21:50:27.665Z,14.53
2019-03-28T22:02:51.060Z,13.43
2019-03-28T22:05:40.641Z,16.07
2019-03-28T22:08:29.371Z,11.73
2019-03-28T22:17:27.393Z,18.43
2019-03-28T22:26:40.352Z,15.70
2019-03-28T22:29:21.076Z,10.00
2019-03-28T22:32:01.947Z,14.90
2019-03-28T22:34:43.041Z,16.50
2019-03-28T22:37:24.533Z,13.20
2019-03-28T22:43:24.654Z,12.70
2019-03-28T22:46:05.568Z,15.60
2019-03-28T22:48:46.658Z,14.03
2019-03-28T22:51:27.262Z,12.30
2019-03-28T22:54:08.144Z,10.43
2019-03-28T22:56:50.001Z,10.63
2019-03-28T22:59:31.619Z,9.80
2019-03-28T23:02:12.685Z,14.60
2019-03-28T23:04:53.578Z,10.97
2019-03-28T23:10:42.933Z,12.47
2019-03-28T23:13:24.356Z,12.70
2019-03-28T23:16:05.117Z,14.60
2019-03-28T23:18:46.232Z,10.77
2019-03-28T23:21:26.805Z,9.10
2019-03-28T23:24:07.717Z,12.00
2019-03-28T23:26:48.167Z,15.90
2019-03-28T23:29:29.551Z,11.30
2019-03-28T23:32:10.017Z,13.03
2019-03-28T23:34:51.455Z,10.63
2019-03-28T23:37:32.812Z,12.33
2019-03-28T23:43:21.796Z,12.27
2019-03-28T23:46:03.116Z,12.40
2019-03-28T23:48:43.887Z,10.83
2019-03-28T23:51:24.891Z,10.53
2019-03-28T23:54:06.207Z,11.87
2019-03-28T23:56:47.752Z,8.83
